sensor_id;sensor_type;location;lat;lon;timestamp;pressure;altitude;pressure_sealevel;temperature;humidity
35655;BME280;21773;50.010;19.972;2024-03-07T00:00:02;99229.34;;;8.03;100.00
35655;BME280;21773;50.010;19.972;2024-03-07T00:03:12;99228.22;;;7.91;100.00
35655;BME280;21773;50.010;19.972;2024-03-07T00:06:15;99232.59;;;7.99;100.00
35655;BME280;21773;50.010;19.972;2024-03-07T00:09:20;99216.66;;;7.91;100.00
35655;BME280;21773;50.010;19.972;2024-03-07T00:12:26;99224.56;;;7.99;100.00
35655;BME280;21773;50.010;19.972;2024-03-07T00:15:30;99218.63;;;7.75;100.00
35655;BME280;21773;50.010;19.972;2024-03-07T00:18:33;99226.22;;;8.00;100.00
35655;BME280;21773;50.010;19.972;2024-03-07T00:21:36;99232.84;;;8.04;100.00
35655;BME280;21773;50.010;19.972;2024-03-07T00:24:41;99232.06;;;8.10;100.00
35655;BME280;21773;50.010;19.972;2024-03-07T00:27:44;99231.03;;;8.11;100.00
35655;BME280;21773;50.010;19.972;2024-03-07T00:30:47;99231.06;;;8.17;100.00
35655;BME280;21773;50.010;19.972;2024-03-07T00:33:51;99238.69;;;8.14;100.00
35655;BME280;21773;50.010;19.972;2024-03-07T00:37:10;99237.47;;;8.16;100.00
35655;BME280;21773;50.010;19.972;2024-03-07T00:40:16;99230.28;;;8.23;100.00
35655;BME280;21773;50.010;19.972;2024-03-07T00:43:19;99228.25;;;8.25;100.00
35655;BME280;21773;50.010;19.972;2024-03-07T00:46:22;99241.66;;;8.25;100.00
35655;BME280;21773;50.010;19.972;2024-03-07T00:49:25;99235.47;;;8.25;100.00
35655;BME280;21773;50.010;19.972;2024-03-07T00:52:30;99224.19;;;8.08;100.00
35655;BME280;21773;50.010;19.972;2024-03-07T00:55:35;99226.94;;;8.15;100.00
35655;BME280;21773;50.010;19.972;2024-03-07T00:58:38;99222.00;;;8.18;100.00
35655;BME280;21773;50.010;19.972;2024-03-07T01:01:42;99224.06;;;8.23;100.00
35655;BME280;21773;50.010;19.972;2024-03-07T01:04:45;99228.97;;;8.13;100.00
35655;BME280;21773;50.010;19.972;2024-03-07T01:07:49;99223.34;;;8.01;100.00
35655;BME280;21773;50.010;19.972;2024-03-07T01:10:53;99224.75;;;7.97;100.00
35655;BME280;21773;50.010;19.972;2024-03-07T01:13:56;99221.88;;;7.99;100.00
35655;BME280;21773;50.010;19.972;2024-03-07T01:16:59;99200.69;;;7.82;100.00
35655;BME280;21773;50.010;19.972;2024-03-07T01:20:03;99226.34;;;7.92;100.00
35655;BME280;21773;50.010;19.972;2024-03-07T01:23:06;99224.97;;;7.96;100.00
35655;BME280;21773;50.010;19.972;2024-03-07T01:26:11;99223.66;;;7.92;100.00
35655;BME280;21773;50.010;19.972;2024-03-07T01:29:14;99225.56;;;7.98;100.00
35655;BME280;21773;50.010;19.972;2024-03-07T01:32:17;99219.97;;;7.93;100.00
35655;BME280;21773;50.010;19.972;2024-03-07T01:35:21;99216.78;;;7.82;100.00
35655;BME280;21773;50.010;19.972;2024-03-07T01:38:24;99229.94;;;7.71;100.00
35655;BME280;21773;50.010;19.972;2024-03-07T01:41:28;99221.75;;;7.58;100.00
35655;BME280;21773;50.010;19.972;2024-03-07T01:44:32;99222.31;;;7.74;100.00
35655;BME280;21773;50.010;19.972;2024-03-07T01:47:35;99219.41;;;7.69;100.00
35655;BME280;21773;50.010;19.972;2024-03-07T01:50:39;99222.50;;;7.73;100.00
35655;BME280;21773;50.010;19.972;2024-03-07T01:53:43;99220.03;;;7.71;100.00
35655;BME280;21773;50.010;19.972;2024-03-07T01:56:49;99219.44;;;7.76;100.00
35655;BME280;21773;50.010;19.972;2024-03-07T01:59:52;99217.53;;;7.70;100.00
35655;BME280;21773;50.010;19.972;2024-03-07T02:02:55;99242.91;;;7.67;100.00
35655;BME280;21773;50.010;19.972;2024-03-07T02:05:59;99214.91;;;7.76;100.00
35655;BME280;21773;50.010;19.972;2024-03-07T02:09:04;99200.56;;;7.63;100.00
35655;BME280;21773;50.010;19.972;2024-03-07T02:12:09;99204.91;;;7.64;100.00
35655;BME280;21773;50.010;19.972;2024-03-07T02:15:12;99149.91;;;7.25;100.00
35655;BME280;21773;50.010;19.972;2024-03-07T02:18:17;99177.31;;;7.42;100.00
35655;BME280;21773;50.010;19.972;2024-03-07T02:21:22;99046.75;;;6.23;100.00
35655;BME280;21773;50.010;19.972;2024-03-07T02:24:26;99082.28;;;6.74;100.00
35655;BME280;21773;50.010;19.972;2024-03-07T02:27:30;99160.31;;;7.14;100.00
35655;BME280;21773;50.010;19.972;2024-03-07T02:30:33;99180.44;;;7.24;100.00
35655;BME280;21773;50.010;19.972;2024-03-07T02:33:37;99115.22;;;6.75;100.00
35655;BME280;21773;50.010;19.972;2024-03-07T02:36:44;99207.34;;;6.88;100.00
35655;BME280;21773;50.010;19.972;2024-03-07T02:39:48;99062.16;;;6.21;100.00
35655;BME280;21773;50.010;19.972;2024-03-07T02:42:52;99107.97;;;6.47;100.00
35655;BME280;21773;50.010;19.972;2024-03-07T02:45:56;99211.59;;;6.83;100.00
35655;BME280;21773;50.010;19.972;2024-03-07T02:49:00;99185.06;;;6.88;100.00
35655;BME280;21773;50.010;19.972;2024-03-07T02:52:05;99171.06;;;6.92;100.00
35655;BME280;21773;50.010;19.972;2024-03-07T02:55:11;99175.69;;;6.99;100.00
35655;BME280;21773;50.010;19.972;2024-03-07T02:58:15;99166.66;;;6.85;100.00
35655;BME280;21773;50.010;19.972;2024-03-07T03:01:18;99120.53;;;6.47;100.00
35655;BME280;21773;50.010;19.972;2024-03-07T03:04:22;99196.28;;;7.19;100.00
35655;BME280;21773;50.010;19.972;2024-03-07T03:07:28;99230.69;;;7.16;100.00
35655;BME280;21773;50.010;19.972;2024-03-07T03:10:31;99210.84;;;7.31;100.00
35655;BME280;21773;50.010;19.972;2024-03-07T03:13:37;99224.00;;;7.26;100.00
35655;BME280;21773;50.010;19.972;2024-03-07T03:16:41;99220.06;;;7.29;100.00
35655;BME280;21773;50.010;19.972;2024-03-07T03:19:50;99215.44;;;7.37;100.00
35655;BME280;21773;50.010;19.972;2024-03-07T03:22:55;99222.50;;;7.45;100.00
35655;BME280;21773;50.010;19.972;2024-03-07T03:26:18;99222.91;;;7.42;100.00
35655;BME280;21773;50.010;19.972;2024-03-07T03:29:21;99206.91;;;7.34;100.00
35655;BME280;21773;50.010;19.972;2024-03-07T03:32:25;99212.63;;;7.24;100.00
35655;BME280;21773;50.010;19.972;2024-03-07T03:35:28;99214.34;;;7.32;100.00
35655;BME280;21773;50.010;19.972;2024-03-07T03:38:32;99215.03;;;7.40;100.00
35655;BME280;21773;50.010;19.972;2024-03-07T03:41:36;99215.81;;;7.34;100.00
35655;BME280;21773;50.010;19.972;2024-03-07T03:44:39;99217.88;;;7.32;100.00
35655;BME280;21773;50.010;19.972;2024-03-07T03:47:42;99221.38;;;7.33;100.00
35655;BME280;21773;50.010;19.972;2024-03-07T03:50:46;99224.09;;;7.39;100.00
35655;BME280;21773;50.010;19.972;2024-03-07T03:53:50;99228.44;;;7.19;100.00
35655;BME280;21773;50.010;19.972;2024-03-07T03:56:55;99222.84;;;7.35;100.00
35655;BME280;21773;50.010;19.972;2024-03-07T04:00:01;99225.44;;;7.29;100.00
35655;BME280;21773;50.010;19.972;2024-03-07T04:03:09;99225.16;;;7.17;100.00
35655;BME280;21773;50.010;19.972;2024-03-07T04:06:13;99223.47;;;7.16;100.00
35655;BME280;21773;50.010;19.972;2024-03-07T04:09:18;99217.22;;;7.09;100.00
35655;BME280;21773;50.010;19.972;2024-03-07T04:12:21;99221.63;;;7.17;100.00
35655;BME280;21773;50.010;19.972;2024-03-07T04:15:25;99216.78;;;7.06;100.00
35655;BME280;21773;50.010;19.972;2024-03-07T04:18:28;99227.50;;;7.06;100.00
35655;BME280;21773;50.010;19.972;2024-03-07T04:21:32;99237.34;;;6.99;100.00
35655;BME280;21773;50.010;19.972;2024-03-07T04:24:36;99234.56;;;6.92;100.00
35655;BME280;21773;50.010;19.972;2024-03-07T04:27:39;99222.94;;;6.85;100.00
35655;BME280;21773;50.010;19.972;2024-03-07T04:30:43;99240.31;;;6.89;100.00
35655;BME280;21773;50.010;19.972;2024-03-07T04:33:46;99238.19;;;6.84;100.00
35655;BME280;21773;50.010;19.972;2024-03-07T04:36:49;99210.63;;;6.69;100.00
35655;BME280;21773;50.010;19.972;2024-03-07T04:39:54;99239.84;;;6.85;100.00
35655;BME280;21773;50.010;19.972;2024-03-07T04:42:57;99236.59;;;6.90;100.00
35655;BME280;21773;50.010;19.972;2024-03-07T04:46:00;99237.69;;;6.95;100.00
35655;BME280;21773;50.010;19.972;2024-03-07T04:49:03;99260.81;;;6.96;100.00
35655;BME280;21773;50.010;19.972;2024-03-07T04:52:06;99241.25;;;6.81;100.00
35655;BME280;21773;50.010;19.972;2024-03-07T04:55:11;99240.94;;;6.91;100.00
35655;BME280;21773;50.010;19.972;2024-03-07T04:58:15;99259.59;;;6.99;100.00
35655;BME280;21773;50.010;19.972;2024-03-07T05:01:18;99249.44;;;6.94;100.00
35655;BME280;21773;50.010;19.972;2024-03-07T05:04:21;99259.53;;;6.92;100.00
35655;BME280;21773;50.010;19.972;2024-03-07T05:07:31;99261.03;;;6.80;100.00
35655;BME280;21773;50.010;19.972;2024-03-07T05:10:35;99257.34;;;6.81;100.00
35655;BME280;21773;50.010;19.972;2024-03-07T05:13:38;99263.09;;;6.78;100.00
35655;BME280;21773;50.010;19.972;2024-03-07T05:16:44;99264.28;;;6.76;100.00
35655;BME280;21773;50.010;19.972;2024-03-07T05:19:47;99261.09;;;6.87;100.00
35655;BME280;21773;50.010;19.972;2024-03-07T05:22:51;99263.13;;;6.85;100.00
35655;BME280;21773;50.010;19.972;2024-03-07T05:25:56;99274.94;;;6.69;100.00
35655;BME280;21773;50.010;19.972;2024-03-07T05:29:01;99272.53;;;6.74;100.00
35655;BME280;21773;50.010;19.972;2024-03-07T05:32:23;99268.06;;;6.81;100.00
35655;BME280;21773;50.010;19.972;2024-03-07T05:35:26;99281.28;;;6.83;100.00
35655;BME280;21773;50.010;19.972;2024-03-07T05:38:31;99279.03;;;6.86;100.00
35655;BME280;21773;50.010;19.972;2024-03-07T05:41:36;99282.16;;;6.90;100.00
35655;BME280;21773;50.010;19.972;2024-03-07T05:44:39;99284.69;;;6.77;100.00
35655;BME280;21773;50.010;19.972;2024-03-07T05:47:43;99283.41;;;6.73;100.00
35655;BME280;21773;50.010;19.972;2024-03-07T05:50:47;99286.97;;;6.44;100.00
35655;BME280;21773;50.010;19.972;2024-03-07T05:53:50;99254.00;;;6.14;100.00
35655;BME280;21773;50.010;19.972;2024-03-07T05:56:55;99283.91;;;6.32;100.00
35655;BME280;21773;50.010;19.972;2024-03-07T05:59:58;99280.09;;;6.41;100.00
35655;BME280;21773;50.010;19.972;2024-03-07T06:03:01;99288.88;;;6.35;100.00
35655;BME280;21773;50.010;19.972;2024-03-07T06:06:06;99288.81;;;6.43;100.00
35655;BME280;21773;50.010;19.972;2024-03-07T06:09:13;99279.94;;;6.28;100.00
35655;BME280;21773;50.010;19.972;2024-03-07T06:12:24;99283.91;;;6.47;100.00
35655;BME280;21773;50.010;19.972;2024-03-07T06:15:29;99301.47;;;6.49;100.00
35655;BME280;21773;50.010;19.972;2024-03-07T06:18:33;99304.50;;;6.46;100.00
35655;BME280;21773;50.010;19.972;2024-03-07T06:21:37;99290.09;;;6.18;100.00
35655;BME280;21773;50.010;19.972;2024-03-07T06:24:42;99268.56;;;6.12;100.00
35655;BME280;21773;50.010;19.972;2024-03-07T06:27:47;99310.84;;;6.31;100.00
35655;BME280;21773;50.010;19.972;2024-03-07T06:30:51;99305.03;;;6.27;100.00
35655;BME280;21773;50.010;19.972;2024-03-07T06:33:54;99305.88;;;6.13;100.00
35655;BME280;21773;50.010;19.972;2024-03-07T06:36:57;99316.94;;;6.10;100.00
35655;BME280;21773;50.010;19.972;2024-03-07T06:40:00;99312.81;;;5.85;100.00
35655;BME280;21773;50.010;19.972;2024-03-07T06:43:09;99293.22;;;5.70;100.00
35655;BME280;21773;50.010;19.972;2024-03-07T06:46:13;99285.84;;;5.72;100.00
35655;BME280;21773;50.010;19.972;2024-03-07T06:49:18;99315.66;;;5.83;100.00
35655;BME280;21773;50.010;19.972;2024-03-07T06:52:22;99326.88;;;6.01;100.00
35655;BME280;21773;50.010;19.972;2024-03-07T06:55:26;99285.38;;;5.83;100.00
35655;BME280;21773;50.010;19.972;2024-03-07T06:58:31;99330.22;;;6.03;100.00
35655;BME280;21773;50.010;19.972;2024-03-07T07:01:35;99328.28;;;6.12;100.00
35655;BME280;21773;50.010;19.972;2024-03-07T07:04:38;99328.81;;;5.93;100.00
35655;BME280;21773;50.010;19.972;2024-03-07T07:07:44;99322.06;;;5.97;100.00
35655;BME280;21773;50.010;19.972;2024-03-07T07:10:48;99333.19;;;6.08;100.00
35655;BME280;21773;50.010;19.972;2024-03-07T07:13:52;99331.69;;;6.06;100.00
35655;BME280;21773;50.010;19.972;2024-03-07T07:16:55;99336.66;;;5.94;100.00
35655;BME280;21773;50.010;19.972;2024-03-07T07:20:00;99340.25;;;6.01;100.00
35655;BME280;21773;50.010;19.972;2024-03-07T07:23:11;99340.94;;;5.81;100.00
35655;BME280;21773;50.010;19.972;2024-03-07T07:26:15;99338.38;;;5.87;100.00
35655;BME280;21773;50.010;19.972;2024-03-07T07:29:19;99340.34;;;5.93;100.00
35655;BME280;21773;50.010;19.972;2024-03-07T07:32:26;99333.81;;;5.96;100.00
35655;BME280;21773;50.010;19.972;2024-03-07T07:35:29;99341.47;;;5.99;100.00
35655;BME280;21773;50.010;19.972;2024-03-07T07:38:33;99345.91;;;6.06;100.00
35655;BME280;21773;50.010;19.972;2024-03-07T07:41:36;99340.25;;;6.01;100.00
35655;BME280;21773;50.010;19.972;2024-03-07T07:44:44;99339.84;;;6.13;100.00
35655;BME280;21773;50.010;19.972;2024-03-07T07:47:48;99339.94;;;6.19;100.00
35655;BME280;21773;50.010;19.972;2024-03-07T07:50:52;99347.19;;;5.96;100.00
35655;BME280;21773;50.010;19.972;2024-03-07T07:53:55;99324.00;;;5.88;100.00
35655;BME280;21773;50.010;19.972;2024-03-07T07:56:59;99343.34;;;6.13;100.00
35655;BME280;21773;50.010;19.972;2024-03-07T08:00:05;99345.47;;;6.18;100.00
35655;BME280;21773;50.010;19.972;2024-03-07T08:03:13;99337.59;;;6.01;100.00
35655;BME280;21773;50.010;19.972;2024-03-07T08:06:17;99347.66;;;5.99;100.00
35655;BME280;21773;50.010;19.972;2024-03-07T08:09:21;99350.28;;;6.22;100.00
35655;BME280;21773;50.010;19.972;2024-03-07T08:12:24;99356.38;;;6.31;100.00
35655;BME280;21773;50.010;19.972;2024-03-07T08:15:30;99330.06;;;6.05;100.00
35655;BME280;21773;50.010;19.972;2024-03-07T08:18:33;99340.84;;;6.12;100.00
35655;BME280;21773;50.010;19.972;2024-03-07T08:21:36;99347.44;;;6.24;100.00
35655;BME280;21773;50.010;19.972;2024-03-07T08:24:40;99364.97;;;6.26;100.00
35655;BME280;21773;50.010;19.972;2024-03-07T08:27:48;99363.50;;;6.24;100.00
35655;BME280;21773;50.010;19.972;2024-03-07T08:30:53;99368.84;;;6.24;100.00
35655;BME280;21773;50.010;19.972;2024-03-07T08:33:56;99356.84;;;6.20;100.00
35655;BME280;21773;50.010;19.972;2024-03-07T08:37:00;99358.59;;;6.27;100.00
35655;BME280;21773;50.010;19.972;2024-03-07T08:40:07;99366.38;;;6.37;100.00
35655;BME280;21773;50.010;19.972;2024-03-07T08:43:12;99364.69;;;6.36;100.00
35655;BME280;21773;50.010;19.972;2024-03-07T08:46:17;99360.38;;;6.35;100.00
35655;BME280;21773;50.010;19.972;2024-03-07T08:49:20;99372.28;;;6.32;100.00
35655;BME280;21773;50.010;19.972;2024-03-07T08:52:24;99365.34;;;6.23;100.00
35655;BME280;21773;50.010;19.972;2024-03-07T08:55:27;99368.69;;;6.25;100.00
35655;BME280;21773;50.010;19.972;2024-03-07T08:58:30;99342.59;;;6.04;100.00
35655;BME280;21773;50.010;19.972;2024-03-07T09:01:35;99366.63;;;6.27;100.00
35655;BME280;21773;50.010;19.972;2024-03-07T09:04:38;99345.09;;;6.21;100.00
35655;BME280;21773;50.010;19.972;2024-03-07T09:07:42;99366.75;;;6.34;100.00
35655;BME280;21773;50.010;19.972;2024-03-07T09:10:46;99360.28;;;6.43;100.00
35655;BME280;21773;50.010;19.972;2024-03-07T09:13:50;99366.38;;;6.37;100.00
35655;BME280;21773;50.010;19.972;2024-03-07T09:16:54;99370.16;;;6.42;100.00
35655;BME280;21773;50.010;19.972;2024-03-07T09:19:57;99363.41;;;6.61;100.00
35655;BME280;21773;50.010;19.972;2024-03-07T09:23:01;99369.06;;;6.51;100.00
35655;BME280;21773;50.010;19.972;2024-03-07T09:26:04;99375.13;;;6.45;100.00
35655;BME280;21773;50.010;19.972;2024-03-07T09:29:09;99371.84;;;6.58;100.00
35655;BME280;21773;50.010;19.972;2024-03-07T09:32:14;99363.81;;;6.58;100.00
35655;BME280;21773;50.010;19.972;2024-03-07T09:35:17;99371.66;;;6.60;100.00
35655;BME280;21773;50.010;19.972;2024-03-07T09:38:22;99376.47;;;6.64;100.00
35655;BME280;21773;50.010;19.972;2024-03-07T09:41:25;99382.91;;;6.70;100.00
35655;BME280;21773;50.010;19.972;2024-03-07T09:44:29;99318.25;;;6.29;100.00
35655;BME280;21773;50.010;19.972;2024-03-07T09:47:36;99378.38;;;6.70;100.00
35655;BME280;21773;50.010;19.972;2024-03-07T09:50:40;99373.84;;;6.71;100.00
35655;BME280;21773;50.010;19.972;2024-03-07T09:53:45;99383.28;;;6.67;100.00
35655;BME280;21773;50.010;19.972;2024-03-07T09:56:49;99384.50;;;6.49;100.00
35655;BME280;21773;50.010;19.972;2024-03-07T09:59:54;99387.72;;;6.45;100.00
35655;BME280;21773;50.010;19.972;2024-03-07T10:03:04;99384.84;;;6.61;100.00
35655;BME280;21773;50.010;19.972;2024-03-07T10:06:08;99386.91;;;6.59;100.00
35655;BME280;21773;50.010;19.972;2024-03-07T10:09:13;99382.09;;;6.55;100.00
35655;BME280;21773;50.010;19.972;2024-03-07T10:12:16;99393.09;;;6.60;100.00
35655;BME280;21773;50.010;19.972;2024-03-07T10:15:20;99395.13;;;6.58;100.00
35655;BME280;21773;50.010;19.972;2024-03-07T10:18:26;99360.38;;;6.35;100.00
35655;BME280;21773;50.010;19.972;2024-03-07T10:21:29;99395.50;;;6.55;100.00
35655;BME280;21773;50.010;19.972;2024-03-07T10:24:33;99392.63;;;6.71;100.00
35655;BME280;21773;50.010;19.972;2024-03-07T10:27:37;99390.31;;;6.68;100.00
35655;BME280;21773;50.010;19.972;2024-03-07T10:30:41;99386.16;;;6.65;100.00
35655;BME280;21773;50.010;19.972;2024-03-07T10:33:47;99395.47;;;6.40;100.00
35655;BME280;21773;50.010;19.972;2024-03-07T10:36:50;99396.47;;;6.39;100.00
35655;BME280;21773;50.010;19.972;2024-03-07T10:39:56;99395.09;;;6.43;100.00
35655;BME280;21773;50.010;19.972;2024-03-07T10:42:59;99400.06;;;6.31;100.00
35655;BME280;21773;50.010;19.972;2024-03-07T10:46:05;99398.94;;;6.26;100.00
35655;BME280;21773;50.010;19.972;2024-03-07T10:49:15;99400.56;;;6.49;100.00
35655;BME280;21773;50.010;19.972;2024-03-07T10:52:23;99403.59;;;6.61;100.00
35655;BME280;21773;50.010;19.972;2024-03-07T10:55:34;99395.22;;;6.64;100.00
35655;BME280;21773;50.010;19.972;2024-03-07T10:58:49;99404.28;;;6.63;100.00
35655;BME280;21773;50.010;19.972;2024-03-07T11:02:15;99394.75;;;6.75;100.00
35655;BME280;21773;50.010;19.972;2024-03-07T11:05:20;99403.59;;;6.90;100.00
35655;BME280;21773;50.010;19.972;2024-03-07T11:08:26;99195.53;;;5.74;100.00
35655;BME280;21773;50.010;19.972;2024-03-07T11:11:30;99385.69;;;6.76;100.00
35655;BME280;21773;50.010;19.972;2024-03-07T11:14:35;99389.09;;;7.00;100.00
35655;BME280;21773;50.010;19.972;2024-03-07T11:17:39;99392.84;;;7.20;100.00
35655;BME280;21773;50.010;19.972;2024-03-07T11:20:45;99386.47;;;7.21;100.00
35655;BME280;21773;50.010;19.972;2024-03-07T11:23:49;99391.41;;;7.17;100.00
35655;BME280;21773;50.010;19.972;2024-03-07T11:26:53;99394.41;;;7.29;100.00
35655;BME280;21773;50.010;19.972;2024-03-07T11:30:04;99394.69;;;7.19;100.00
35655;BME280;21773;50.010;19.972;2024-03-07T11:33:09;99388.06;;;7.01;100.00
35655;BME280;21773;50.010;19.972;2024-03-07T11:36:43;99386.22;;;7.01;100.00
35655;BME280;21773;50.010;19.972;2024-03-07T11:39:47;99381.16;;;6.91;100.00
35655;BME280;21773;50.010;19.972;2024-03-07T11:42:53;99381.97;;;7.07;100.00
35655;BME280;21773;50.010;19.972;2024-03-07T11:45:59;99390.19;;;7.05;100.00
35655;BME280;21773;50.010;19.972;2024-03-07T11:49:02;99394.63;;;7.13;100.00
35655;BME280;21773;50.010;19.972;2024-03-07T11:52:07;99394.25;;;7.16;100.00
35655;BME280;21773;50.010;19.972;2024-03-07T11:55:13;99384.78;;;6.84;100.00
35655;BME280;21773;50.010;19.972;2024-03-07T11:58:19;99384.28;;;7.10;100.00
35655;BME280;21773;50.010;19.972;2024-03-07T12:01:26;99385.09;;;7.10;100.00
35655;BME280;21773;50.010;19.972;2024-03-07T12:04:32;99388.34;;;7.06;100.00
35655;BME280;21773;50.010;19.972;2024-03-07T12:07:38;99393.56;;;6.78;100.00
35655;BME280;21773;50.010;19.972;2024-03-07T12:10:42;99401.75;;;6.62;100.00
35655;BME280;21773;50.010;19.972;2024-03-07T12:13:51;99386.97;;;6.66;100.00
35655;BME280;21773;50.010;19.972;2024-03-07T12:16:54;99398.97;;;6.70;100.00
35655;BME280;21773;50.010;19.972;2024-03-07T12:19:58;99404.34;;;6.84;100.00
35655;BME280;21773;50.010;19.972;2024-03-07T12:23:06;99394.19;;;6.80;100.00
35655;BME280;21773;50.010;19.972;2024-03-07T12:26:10;99398.63;;;6.87;100.00
35655;BME280;21773;50.010;19.972;2024-03-07T12:29:18;99404.16;;;6.86;100.00
35655;BME280;21773;50.010;19.972;2024-03-07T12:32:28;99390.78;;;6.71;100.00
35655;BME280;21773;50.010;19.972;2024-03-07T12:35:33;99402.97;;;7.03;100.00
35655;BME280;21773;50.010;19.972;2024-03-07T12:38:38;99383.16;;;7.04;100.00
35655;BME280;21773;50.010;19.972;2024-03-07T12:41:44;99405.97;;;7.29;100.00
35655;BME280;21773;50.010;19.972;2024-03-07T12:44:47;99392.56;;;7.29;100.00
35655;BME280;21773;50.010;19.972;2024-03-07T12:47:53;99381.00;;;7.29;100.00
35655;BME280;21773;50.010;19.972;2024-03-07T12:50:57;99407.81;;;7.29;100.00
35655;BME280;21773;50.010;19.972;2024-03-07T12:54:05;99404.16;;;7.15;100.00
35655;BME280;21773;50.010;19.972;2024-03-07T12:57:10;99410.06;;;7.25;100.00
35655;BME280;21773;50.010;19.972;2024-03-07T13:00:14;99401.16;;;7.25;100.00
35655;BME280;21773;50.010;19.972;2024-03-07T13:03:21;99404.28;;;7.28;100.00
35655;BME280;21773;50.010;19.972;2024-03-07T13:06:24;99404.91;;;7.45;100.00
35655;BME280;21773;50.010;19.972;2024-03-07T13:09:33;99409.63;;;7.43;100.00
35655;BME280;21773;50.010;19.972;2024-03-07T13:12:37;99408.69;;;7.51;100.00
35655;BME280;21773;50.010;19.972;2024-03-07T13:15:44;99403.88;;;7.61;100.00
35655;BME280;21773;50.010;19.972;2024-03-07T13:18:49;99401.31;;;7.74;100.00
35655;BME280;21773;50.010;19.972;2024-03-07T13:21:55;99398.44;;;7.75;100.00
35655;BME280;21773;50.010;19.972;2024-03-07T13:25:00;99402.84;;;7.83;100.00
35655;BME280;21773;50.010;19.972;2024-03-07T13:28:08;99404.78;;;7.89;100.00
35655;BME280;21773;50.010;19.972;2024-03-07T13:31:15;99403.25;;;8.01;100.00
35655;BME280;21773;50.010;19.972;2024-03-07T13:34:19;99390.09;;;8.13;100.00
35655;BME280;21773;50.010;19.972;2024-03-07T13:37:22;99396.22;;;8.28;100.00
35655;BME280;21773;50.010;19.972;2024-03-07T13:40:27;99401.59;;;8.28;100.00
35655;BME280;21773;50.010;19.972;2024-03-07T13:43:32;99391.31;;;8.32;100.00
35655;BME280;21773;50.010;19.972;2024-03-07T13:46:36;99403.13;;;8.31;100.00
35655;BME280;21773;50.010;19.972;2024-03-07T13:49:39;99393.78;;;8.05;100.00
35655;BME280;21773;50.010;19.972;2024-03-07T13:52:46;99396.97;;;8.15;100.00
35655;BME280;21773;50.010;19.972;2024-03-07T13:56:28;99393.94;;;8.25;100.00
35655;BME280;21773;50.010;19.972;2024-03-07T13:59:55;99390.09;;;8.13;100.00
35655;BME280;21773;50.010;19.972;2024-03-07T14:03:22;99392.59;;;8.14;100.00
35655;BME280;21773;50.010;19.972;2024-03-07T14:06:34;99389.28;;;8.12;100.00
35655;BME280;21773;50.010;19.972;2024-03-07T14:10:03;99385.56;;;8.13;100.00
35655;BME280;21773;50.010;19.972;2024-03-07T14:13:38;99395.78;;;8.24;100.00
35655;BME280;21773;50.010;19.972;2024-03-07T14:17:23;99384.47;;;8.29;100.00
35655;BME280;21773;50.010;19.972;2024-03-07T14:20:50;99394.22;;;8.30;100.00
35655;BME280;21773;50.010;19.972;2024-03-07T14:24:16;99340.69;;;8.07;100.00
35655;BME280;21773;50.010;19.972;2024-03-07T14:27:32;99379.75;;;8.31;100.00
35655;BME280;21773;50.010;19.972;2024-03-07T14:30:41;99382.69;;;8.15;100.00
35655;BME280;21773;50.010;19.972;2024-03-07T14:34:04;99362.06;;;8.15;100.00
35655;BME280;21773;50.010;19.972;2024-03-07T14:37:18;99370.19;;;8.01;100.00
35655;BME280;21773;50.010;19.972;2024-03-07T14:40:24;99379.38;;;8.13;100.00
35655;BME280;21773;50.010;19.972;2024-03-07T14:43:28;99375.41;;;8.30;100.00
35655;BME280;21773;50.010;19.972;2024-03-07T14:46:33;99368.69;;;8.19;100.00
35655;BME280;21773;50.010;19.972;2024-03-07T14:49:37;99374.25;;;8.18;100.00
35655;BME280;21773;50.010;19.972;2024-03-07T14:52:41;99373.84;;;8.21;100.00
35655;BME280;21773;50.010;19.972;2024-03-07T14:55:44;99363.94;;;8.21;100.00
35655;BME280;21773;50.010;19.972;2024-03-07T14:58:47;99366.66;;;8.00;100.00
35655;BME280;21773;50.010;19.972;2024-03-07T15:01:52;99360.72;;;8.05;100.00
35655;BME280;21773;50.010;19.972;2024-03-07T15:04:55;99361.34;;;8.07;100.00
35655;BME280;21773;50.010;19.972;2024-03-07T15:07:58;99369.38;;;8.07;100.00
35655;BME280;21773;50.010;19.972;2024-03-07T15:11:07;99367.25;;;8.23;100.00
35655;BME280;21773;50.010;19.972;2024-03-07T15:14:15;99360.56;;;8.13;100.00
35655;BME280;21773;50.010;19.972;2024-03-07T15:17:35;99366.19;;;8.18;100.00
35655;BME280;21773;50.010;19.972;2024-03-07T15:20:38;99356.53;;;8.23;100.00
35655;BME280;21773;50.010;19.972;2024-03-07T15:23:43;99362.59;;;8.32;100.00
35655;BME280;21773;50.010;19.972;2024-03-07T15:26:46;99361.72;;;8.25;100.00
35655;BME280;21773;50.010;19.972;2024-03-07T15:29:51;99357.69;;;8.14;100.00
35655;BME280;21773;50.010;19.972;2024-03-07T15:32:58;99335.81;;;7.90;100.00
35655;BME280;21773;50.010;19.972;2024-03-07T15:36:01;99362.91;;;7.95;100.00
35655;BME280;21773;50.010;19.972;2024-03-07T15:39:07;99394.72;;;7.98;100.00
35655;BME280;21773;50.010;19.972;2024-03-07T15:42:22;99355.50;;;7.75;100.00
35655;BME280;21773;50.010;19.972;2024-03-07T15:45:27;99367.28;;;8.02;100.00
35655;BME280;21773;50.010;19.972;2024-03-07T15:48:32;99370.69;;;8.11;100.00
35655;BME280;21773;50.010;19.972;2024-03-07T15:51:35;99362.38;;;8.06;100.00
35655;BME280;21773;50.010;19.972;2024-03-07T15:54:39;99368.34;;;8.01;100.00
35655;BME280;21773;50.010;19.972;2024-03-07T15:57:45;99364.50;;;7.89;100.00
35655;BME280;21773;50.010;19.972;2024-03-07T16:00:50;99324.69;;;7.50;100.00
35655;BME280;21773;50.010;19.972;2024-03-07T16:03:55;99363.91;;;7.72;100.00
35655;BME280;21773;50.010;19.972;2024-03-07T16:06:59;99369.59;;;7.63;100.00
35655;BME280;21773;50.010;19.972;2024-03-07T16:10:03;99371.41;;;7.56;100.00